createdAt,value
2018-02-14T00:00:05.503Z,7.00
2018-02-14T00:01:05.390Z,7.10
2018-02-14T00:02:05.303Z,7.20
2018-02-14T00:03:05.215Z,6.70
2018-02-14T00:04:05.127Z,7.20
2018-02-14T00:05:05.040Z,6.70
2018-02-14T00:06:04.952Z,7.20
2018-02-14T00:07:04.867Z,8.10
2018-02-14T00:08:04.777Z,7.50
2018-02-14T00:09:04.689Z,6.90
2018-02-14T00:10:04.601Z,6.80
2018-02-14T00:11:04.514Z,6.70
2018-02-14T00:12:04.426Z,7.30
2018-02-14T00:13:04.338Z,6.60
2018-02-14T00:14:04.249Z,7.10
2018-02-14T00:15:04.163Z,7.80
2018-02-14T00:16:04.075Z,6.80
2018-02-14T00:17:03.987Z,7.60
2018-02-14T00:18:03.899Z,7.50
2018-02-14T00:19:03.812Z,6.70
2018-02-14T00:20:03.724Z,7.20
2018-02-14T00:21:03.635Z,6.60
2018-02-14T00:22:03.550Z,6.60
2018-02-14T00:23:03.460Z,7.20
2018-02-14T00:24:03.403Z,7.30
2018-02-14T00:25:03.283Z,8.00
2018-02-14T00:26:03.195Z,7.30
2018-02-14T00:27:03.108Z,6.80
2018-02-14T00:28:03.020Z,7.50
2018-02-14T00:29:02.932Z,6.80
2018-02-14T00:30:02.844Z,7.40
2018-02-14T00:31:02.756Z,7.20
2018-02-14T00:32:02.669Z,7.80
2018-02-14T00:33:02.579Z,7.40
2018-02-14T00:34:02.491Z,7.20
2018-02-14T00:35:02.405Z,7.30
2018-02-14T00:36:02.316Z,6.90
2018-02-14T00:37:02.227Z,7.90
2018-02-14T00:38:02.140Z,7.40
2018-02-14T00:39:02.051Z,7.00
2018-02-14T00:40:01.964Z,7.50
2018-02-14T00:41:01.875Z,7.70
2018-02-14T00:42:01.787Z,7.30
2018-02-14T00:43:01.700Z,7.30
2018-02-14T00:44:01.912Z,7.20
2018-02-14T00:45:01.523Z,7.40
2018-02-14T00:46:01.436Z,7.40
2018-02-14T00:47:01.349Z,7.30
2018-02-14T00:48:01.259Z,7.80
2018-02-14T00:49:01.172Z,7.60
2018-02-14T00:50:01.086Z,7.00
2018-02-14T00:51:00.995Z,7.80
2018-02-14T00:52:00.907Z,6.50
2018-02-14T00:53:00.822Z,7.60
2018-02-14T00:54:00.731Z,7.00
2018-02-14T00:55:00.643Z,7.50
2018-02-14T00:56:00.554Z,7.20
2018-02-14T00:57:00.467Z,7.00
2018-02-14T00:58:00.379Z,6.80
2018-02-14T00:59:00.291Z,7.40
2018-02-14T01:00:00.203Z,7.20
2018-02-14T01:01:00.116Z,7.80
2018-02-14T01:02:00.030Z,7.50
2018-02-14T01:02:59.939Z,7.00
2018-02-14T01:03:59.851Z,7.20
2018-02-14T01:04:59.763Z,7.10
2018-02-14T01:05:59.675Z,7.00
2018-02-14T01:06:59.588Z,7.80
2018-02-14T01:07:59.499Z,7.50
2018-02-14T01:08:59.410Z,7.40
2018-02-14T01:09:59.322Z,7.50
2018-02-14T01:10:59.233Z,7.60
2018-02-14T01:11:59.147Z,7.70
2018-02-14T01:12:59.057Z,7.00
2018-02-14T01:13:58.970Z,7.00
2018-02-14T01:14:58.883Z,7.00
2018-02-14T01:15:58.795Z,7.50
2018-02-14T01:16:58.706Z,7.50
2018-02-14T01:17:58.617Z,7.30
2018-02-14T01:18:58.531Z,7.90
2018-02-14T01:19:58.443Z,7.20
2018-02-14T01:20:58.354Z,7.40
2018-02-14T01:21:58.266Z,7.20
2018-02-14T01:22:58.180Z,7.70
2018-02-14T01:23:58.092Z,7.60
2018-02-14T01:24:58.003Z,7.70
2018-02-14T01:25:57.915Z,7.30
2018-02-14T01:26:57.826Z,8.20
2018-02-14T01:27:57.740Z,7.30
2018-02-14T01:28:57.656Z,7.10
2018-02-14T01:29:57.563Z,7.00
2018-02-14T01:30:57.477Z,7.60
2018-02-14T01:31:57.386Z,8.30
2018-02-14T01:32:57.299Z,7.30
2018-02-14T01:33:57.211Z,7.60
2018-02-14T01:34:57.124Z,7.60
2018-02-14T01:35:57.034Z,7.30
2018-02-14T01:36:56.947Z,7.30
2018-02-14T01:37:56.859Z,7.30
2018-02-14T01:38:56.770Z,7.80
2018-02-14T01:39:56.683Z,7.40
2018-02-14T01:40:56.594Z,7.50
2018-02-14T01:41:56.506Z,7.40
2018-02-14T01:42:56.422Z,6.90
2018-02-14T01:43:56.332Z,7.30
2018-02-14T01:44:56.243Z,7.00
2018-02-14T01:45:56.154Z,7.60
2018-02-14T01:46:56.068Z,7.60
2018-02-14T01:47:55.979Z,7.10
2018-02-14T01:48:55.889Z,7.20
2018-02-14T01:49:55.802Z,7.90
2018-02-14T01:50:55.715Z,8.10
2018-02-14T01:51:55.627Z,7.50
2018-02-14T01:52:55.537Z,7.30
2018-02-14T01:53:55.451Z,7.80
2018-02-14T01:54:55.362Z,7.20
2018-02-14T01:55:55.274Z,6.70
2018-02-14T01:56:55.187Z,7.70
2018-02-14T01:57:55.098Z,7.00
2018-02-14T01:58:55.011Z,7.80
2018-02-14T01:59:54.923Z,7.10
2018-02-14T02:00:54.834Z,7.70
2018-02-14T02:01:54.747Z,7.50
2018-02-14T02:02:54.663Z,7.20
2018-02-14T02:03:54.571Z,7.30
2018-02-14T02:04:54.483Z,7.80
2018-02-14T02:05:54.395Z,7.40
2018-02-14T02:06:54.308Z,7.40
2018-02-14T02:07:54.220Z,7.40
2018-02-14T02:08:54.133Z,7.60
2018-02-14T02:09:54.044Z,7.80
2018-02-14T02:10:53.956Z,6.80
2018-02-14T02:11:53.869Z,7.30
2018-02-14T02:12:53.780Z,7.50
2018-02-14T02:13:53.691Z,7.90
2018-02-14T02:14:53.604Z,7.40
2018-02-14T02:15:53.517Z,7.70
2018-02-14T02:16:53.428Z,7.30
2018-02-14T02:17:53.340Z,8.40
2018-02-14T02:18:53.252Z,8.50
2018-02-14T02:19:53.165Z,7.80
2018-02-14T02:20:53.076Z,8.00
2018-02-14T02:21:52.988Z,7.90
2018-02-14T02:22:52.904Z,8.20
2018-02-14T02:23:52.814Z,8.00
2018-02-14T02:24:52.725Z,8.50
2018-02-14T02:25:52.637Z,8.10
2018-02-14T02:26:52.549Z,7.70
2018-02-14T02:27:52.461Z,7.60
2018-02-14T02:28:52.373Z,7.90
2018-02-14T02:29:52.286Z,8.00
2018-02-14T02:30:52.198Z,7.60
2018-02-14T02:31:52.110Z,7.80
2018-02-14T02:32:52.022Z,8.10
2018-02-14T02:33:51.934Z,8.00
2018-02-14T02:34:51.847Z,8.20
2018-02-14T02:35:51.760Z,8.00
2018-02-14T02:36:51.671Z,8.10
2018-02-14T02:37:51.587Z,8.30
2018-02-14T02:38:51.494Z,7.70
2018-02-14T02:39:51.407Z,8.10
2018-02-14T02:40:51.319Z,7.50
2018-02-14T02:41:51.231Z,8.00
2018-02-14T02:42:51.147Z,7.90
2018-02-14T02:43:51.055Z,7.90
2018-02-14T02:44:50.967Z,7.90
2018-02-14T02:45:50.880Z,8.60
2018-02-14T02:46:50.792Z,8.40
2018-02-14T02:47:50.704Z,8.00
2018-02-14T02:48:50.615Z,8.10
2018-02-14T02:49:50.527Z,8.70
2018-02-14T02:50:50.440Z,8.70
2018-02-14T02:51:50.351Z,8.40
2018-02-14T02:52:50.263Z,7.90
2018-02-14T02:53:50.175Z,8.50
2018-02-14T02:54:50.089Z,8.70
2018-02-14T02:55:50.000Z,8.20
2018-02-14T02:56:49.914Z,8.00
2018-02-14T02:57:49.827Z,8.40
2018-02-14T02:58:49.736Z,8.10
2018-02-14T02:59:49.648Z,8.10
2018-02-14T03:00:49.560Z,8.00
2018-02-14T03:01:49.472Z,8.50
2018-02-14T03:02:49.384Z,8.40
2018-02-14T03:03:49.296Z,8.10
2018-02-14T03:04:49.207Z,8.50
2018-02-14T03:05:49.119Z,8.80
2018-02-14T03:06:49.032Z,8.20
2018-02-14T03:07:48.942Z,8.80
2018-02-14T03:08:48.854Z,8.50
2018-02-14T03:09:48.766Z,9.00
2018-02-14T03:10:48.679Z,8.90
2018-02-14T03:11:48.590Z,8.60
2018-02-14T03:12:48.502Z,8.00
2018-02-14T03:13:48.414Z,8.60
2018-02-14T03:14:48.326Z,8.70
2018-02-14T03:15:48.237Z,8.80
2018-02-14T03:16:48.149Z,8.50
2018-02-14T03:17:48.065Z,8.40
2018-02-14T03:18:47.973Z,8.30
2018-02-14T03:19:47.885Z,8.50
2018-02-14T03:20:47.796Z,9.10
2018-02-14T03:21:47.708Z,11.50
2018-02-14T03:22:47.620Z,10.10
2018-02-14T03:23:47.534Z,9.10
2018-02-14T03:24:47.443Z,8.60
2018-02-14T03:25:47.358Z,8.10
2018-02-14T03:26:47.271Z,8.60
2018-02-14T03:27:47.179Z,8.30
2018-02-14T03:28:47.091Z,8.80
2018-02-14T03:29:47.003Z,8.60
2018-02-14T03:30:46.917Z,9.00
2018-02-14T03:31:46.829Z,9.40
2018-02-14T03:32:46.737Z,8.90
2018-02-14T03:33:46.648Z,8.80
2018-02-14T03:34:46.561Z,8.70
2018-02-14T03:35:46.472Z,9.40
2018-02-14T03:36:46.384Z,9.50
2018-02-14T03:37:46.300Z,9.20
2018-02-14T03:38:46.210Z,9.60
2018-02-14T03:39:46.119Z,8.40
2018-02-14T03:40:46.030Z,8.90
2018-02-14T03:41:45.945Z,9.40
2018-02-14T03:42:45.856Z,9.40
2018-02-14T03:43:45.765Z,8.90
2018-02-14T03:44:45.677Z,9.10
2018-02-14T03:45:45.889Z,8.90
2018-02-14T03:46:45.500Z,9.40
2018-02-14T03:47:45.413Z,9.30
2018-02-14T03:48:45.323Z,8.50
2018-02-14T03:49:45.236Z,8.50
2018-02-14T03:50:45.148Z,8.80
2018-02-14T03:51:45.062Z,9.20
2018-02-14T03:52:44.970Z,9.60
2018-02-14T03:53:44.883Z,8.70
2018-02-14T03:54:44.795Z,9.60
2018-02-14T03:55:44.708Z,8.90
2018-02-14T03:56:44.618Z,8.90
2018-02-14T03:57:44.530Z,8.00
2018-02-14T03:58:44.441Z,8.70
2018-02-14T03:59:44.354Z,8.60
2018-02-14T04:00:44.266Z,9.10
2018-02-14T04:01:44.177Z,9.00
2018-02-14T04:02:44.089Z,9.40
2018-02-14T04:03:44.002Z,9.20
2018-02-14T04:04:43.913Z,9.10
2018-02-14T04:05:43.826Z,9.50
2018-02-14T04:06:43.737Z,9.60
2018-02-14T04:07:43.799Z,10.00
2018-02-14T04:08:43.560Z,9.60
2018-02-14T04:09:43.472Z,8.80
2018-02-14T04:10:43.427Z,9.30
2018-02-14T04:11:43.298Z,9.50
2018-02-14T04:12:43.207Z,9.70
2018-02-14T04:13:43.119Z,10.20
2018-02-14T04:14:43.030Z,10.00
2018-02-14T04:15:42.943Z,9.10
2018-02-14T04:16:42.854Z,10.10
2018-02-14T04:17:42.766Z,9.90
2018-02-14T04:18:42.676Z,9.70
2018-02-14T04:19:42.589Z,9.20
2018-02-14T04:20:42.501Z,9.90
2018-02-14T04:21:42.412Z,9.00
2018-02-14T04:22:42.324Z,9.50
2018-02-14T04:23:42.237Z,9.60
2018-02-14T04:24:42.150Z,10.10
2018-02-14T04:25:42.060Z,9.00
2018-02-14T04:26:41.972Z,9.50
2018-02-14T04:27:41.884Z,8.90
2018-02-14T04:28:41.796Z,8.70
2018-02-14T04:29:41.712Z,9.40
2018-02-14T04:30:41.618Z,9.00
2018-02-14T04:31:41.532Z,10.00
2018-02-14T04:32:41.443Z,9.80
2018-02-14T04:33:41.354Z,8.80
2018-02-14T04:34:41.269Z,9.70
2018-02-14T04:35:41.179Z,8.90
2018-02-14T04:36:41.090Z,9.10
2018-02-14T04:37:41.002Z,9.30
2018-02-14T04:38:40.914Z,10.00
2018-02-14T04:39:40.825Z,9.90
2018-02-14T04:40:40.737Z,10.40
2018-02-14T04:41:40.649Z,9.90
2018-02-14T04:42:40.561Z,9.10
2018-02-14T04:43:40.473Z,9.70
2018-02-14T04:44:40.384Z,10.30
2018-02-14T04:45:40.296Z,9.60
2018-02-14T04:46:40.210Z,9.40
2018-02-14T04:47:40.124Z,8.70
2018-02-14T04:48:40.031Z,10.50
2018-02-14T04:49:39.944Z,9.30
2018-02-14T04:50:39.856Z,9.60
2018-02-14T04:51:39.769Z,10.10
2018-02-14T04:52:39.680Z,9.70
2018-02-14T04:53:39.892Z,9.60
2018-02-14T04:54:39.504Z,10.00
2018-02-14T04:55:39.417Z,9.70
2018-02-14T04:56:39.327Z,9.60
2018-02-14T04:57:39.240Z,9.30
2018-02-14T04:58:39.152Z,9.40
2018-02-14T04:59:39.064Z,10.40
2018-02-14T05:00:38.976Z,9.50
2018-02-14T05:01:38.888Z,10.00
2018-02-14T05:02:38.800Z,13.10
2018-02-14T05:03:38.715Z,18.50
2018-02-14T05:04:38.624Z,10.80
2018-02-14T05:05:38.536Z,10.00
2018-02-14T05:06:38.449Z,9.80
2018-02-14T05:07:38.359Z,11.10
2018-02-14T05:08:38.270Z,9.10
2018-02-14T05:09:38.183Z,10.10
2018-02-14T05:10:38.097Z,10.10
2018-02-14T05:11:38.009Z,10.00
2018-02-14T05:12:37.920Z,10.00
2018-02-14T05:13:37.832Z,10.30
2018-02-14T05:14:37.744Z,9.60
2018-02-14T05:15:37.807Z,10.00
2018-02-14T05:16:37.568Z,9.80
2018-02-14T05:17:37.479Z,9.90
2018-02-14T05:18:37.393Z,9.50
2018-02-14T05:19:37.308Z,10.10
2018-02-14T05:20:37.216Z,9.60
2018-02-14T05:21:37.128Z,9.90
2018-02-14T05:22:37.041Z,9.60
2018-02-14T05:23:36.953Z,10.30
2018-02-14T05:24:36.865Z,9.60
2018-02-14T05:25:36.775Z,10.30
2018-02-14T05:26:36.688Z,9.80
2018-02-14T05:27:36.599Z,8.80
2018-02-14T05:28:36.511Z,10.50
2018-02-14T05:29:36.422Z,9.50
2018-02-14T05:30:36.336Z,10.20
2018-02-14T05:31:36.246Z,10.10
2018-02-14T05:32:36.158Z,10.10
2018-02-14T05:33:36.071Z,9.90
2018-02-14T05:34:35.982Z,9.70
2018-02-14T05:35:35.895Z,10.20
2018-02-14T05:36:35.848Z,9.80
2018-02-14T05:37:35.718Z,9.70
2018-02-14T05:38:35.630Z,10.40
2018-02-14T05:39:35.542Z,9.90
2018-02-14T05:40:35.453Z,9.50
2018-02-14T05:41:35.365Z,10.30
2018-02-14T05:42:35.277Z,10.10
2018-02-14T05:43:35.188Z,10.40
2018-02-14T05:44:35.100Z,9.80
2018-02-14T05:45:35.011Z,10.20
2018-02-14T05:46:34.922Z,9.00
2018-02-14T05:47:34.835Z,9.60
2018-02-14T05:48:34.745Z,9.50
2018-02-14T05:49:34.657Z,9.20
2018-02-14T05:50:34.568Z,10.00
2018-02-14T05:51:34.482Z,10.90
2018-02-14T05:52:34.392Z,9.90
2018-02-14T05:53:34.303Z,9.70
2018-02-14T05:54:34.216Z,10.30
2018-02-14T05:55:34.126Z,10.60
2018-02-14T05:56:34.038Z,9.60
2018-02-14T05:57:33.949Z,9.80
2018-02-14T05:58:33.860Z,10.60
2018-02-14T05:59:33.772Z,10.00
2018-02-14T06:00:33.682Z,9.80
2018-02-14T06:01:33.595Z,9.70
2018-02-14T06:02:33.506Z,10.70
2018-02-14T06:03:33.418Z,9.80
2018-02-14T06:04:33.328Z,9.70
2018-02-14T06:05:33.241Z,10.10
2018-02-14T06:06:33.152Z,9.60
2018-02-14T06:07:33.065Z,9.50
2018-02-14T06:08:32.975Z,9.80
2018-02-14T06:09:32.892Z,10.50
2018-02-14T06:10:32.797Z,10.40
2018-02-14T06:11:32.709Z,9.70
2018-02-14T06:12:32.619Z,10.10
2018-02-14T06:13:32.531Z,9.90
2018-02-14T06:14:32.443Z,9.70
2018-02-14T06:15:32.354Z,10.50
2018-02-14T06:16:32.267Z,9.70
2018-02-14T06:17:32.176Z,9.50
2018-02-14T06:18:32.087Z,9.90
2018-02-14T06:19:31.999Z,9.80
2018-02-14T06:20:31.909Z,10.50
2018-02-14T06:21:31.821Z,9.10
2018-02-14T06:22:31.733Z,9.40
2018-02-14T06:23:31.643Z,9.80
2018-02-14T06:24:31.558Z,9.50
2018-02-14T06:25:31.466Z,9.30
2018-02-14T06:26:31.377Z,9.70
2018-02-14T06:27:31.289Z,9.90
2018-02-14T06:28:31.262Z,10.00
2018-02-14T06:29:31.109Z,9.80
2018-02-14T06:30:31.022Z,9.90
2018-02-14T06:31:30.933Z,10.20
2018-02-14T06:32:30.844Z,10.10
2018-02-14T06:33:30.755Z,9.50
2018-02-14T06:34:30.666Z,10.10
2018-02-14T06:35:30.578Z,10.30
2018-02-14T06:36:30.487Z,11.00
2018-02-14T06:37:30.400Z,9.80
2018-02-14T06:38:30.311Z,9.90
2018-02-14T06:39:30.224Z,10.00
2018-02-14T06:40:30.132Z,11.40
2018-02-14T06:41:30.044Z,11.00
2018-02-14T06:42:29.955Z,10.80
2018-02-14T06:43:29.866Z,10.10
2018-02-14T06:44:29.776Z,10.60
2018-02-14T06:45:29.688Z,10.20
2018-02-14T06:46:29.598Z,10.50
2018-02-14T06:47:29.511Z,10.40
2018-02-14T06:48:29.421Z,11.00
2018-02-14T06:49:29.332Z,10.70
2018-02-14T06:50:29.244Z,11.10
2018-02-14T06:51:29.156Z,10.10
2018-02-14T06:52:29.066Z,10.70
2018-02-14T06:53:28.978Z,11.10
2018-02-14T06:54:28.888Z,10.90
2018-02-14T06:55:28.800Z,10.60
2018-02-14T06:56:28.710Z,10.20
2018-02-14T06:57:28.622Z,10.60
2018-02-14T06:58:28.533Z,10.00
2018-02-14T06:59:28.445Z,10.10
2018-02-14T07:00:28.355Z,10.10
2018-02-14T07:01:28.269Z,10.20
2018-02-14T07:02:28.180Z,10.60
2018-02-14T07:03:28.090Z,11.10
2018-02-14T07:04:27.999Z,10.60
2018-02-14T07:05:27.911Z,11.00
2018-02-14T07:06:27.824Z,10.70
2018-02-14T07:07:27.739Z,10.50
2018-02-14T07:08:27.645Z,10.60
2018-02-14T07:09:27.557Z,10.00
2018-02-14T07:10:27.469Z,10.60
2018-02-14T07:11:27.380Z,9.80
2018-02-14T07:12:27.290Z,9.50
2018-02-14T07:13:27.202Z,10.00
2018-02-14T07:14:27.114Z,10.70
2018-02-14T07:15:27.025Z,9.80
2018-02-14T07:16:26.936Z,9.80
2018-02-14T07:17:26.864Z,10.50
2018-02-14T07:18:26.759Z,9.90
2018-02-14T07:19:26.671Z,10.60
2018-02-14T07:20:26.582Z,10.50
2018-02-14T07:21:26.495Z,10.50
2018-02-14T07:22:26.408Z,9.80
2018-02-14T07:23:26.317Z,9.70
2018-02-14T07:24:26.227Z,9.80
2018-02-14T07:25:26.139Z,9.70
2018-02-14T07:26:26.051Z,10.10
2018-02-14T07:27:25.961Z,11.20
2018-02-14T07:28:25.873Z,9.90
2018-02-14T07:29:25.783Z,9.80
2018-02-14T07:30:25.696Z,9.80
2018-02-14T07:31:25.608Z,10.60
2018-02-14T07:32:25.518Z,10.40
2018-02-14T07:33:25.430Z,9.90
2018-02-14T07:34:25.344Z,10.60
2018-02-14T07:35:25.265Z,10.80
2018-02-14T07:36:25.164Z,10.10
2018-02-14T07:37:25.076Z,10.20
2018-02-14T07:38:24.988Z,11.10
2018-02-14T07:39:24.899Z,10.70
2018-02-14T07:40:24.810Z,10.40
2018-02-14T07:41:24.724Z,10.50
2018-02-14T07:42:24.634Z,10.10
2018-02-14T07:43:24.545Z,10.70
2018-02-14T07:44:24.455Z,11.20
2018-02-14T07:45:24.368Z,10.80
2018-02-14T07:46:24.278Z,11.30
2018-02-14T07:47:24.191Z,10.60
2018-02-14T07:48:24.101Z,11.00
2018-02-14T07:49:24.012Z,11.00
2018-02-14T07:50:23.925Z,10.30
2018-02-14T07:51:23.836Z,10.30
2018-02-14T07:52:23.747Z,10.80
2018-02-14T07:53:23.659Z,10.90
2018-02-14T07:54:23.570Z,11.20
2018-02-14T07:55:23.484Z,10.40
2018-02-14T07:56:23.393Z,11.10
2018-02-14T07:57:23.305Z,11.00
2018-02-14T07:58:23.217Z,10.90
2018-02-14T07:59:23.129Z,11.10
2018-02-14T08:00:23.040Z,10.10
2018-02-14T08:01:22.952Z,11.00
2018-02-14T08:02:22.864Z,10.30
2018-02-14T08:03:22.776Z,11.20
2018-02-14T08:04:22.686Z,11.20
2018-02-14T08:05:22.601Z,10.90
2018-02-14T08:06:22.510Z,10.70
2018-02-14T08:07:22.422Z,10.50
2018-02-14T08:08:22.333Z,11.00
2018-02-14T08:09:22.245Z,10.60
2018-02-14T08:10:22.157Z,11.10
2018-02-14T08:11:22.069Z,11.60
2018-02-14T08:12:21.980Z,10.80
2018-02-14T08:13:21.891Z,10.50
2018-02-14T08:14:21.807Z,10.10
2018-02-14T08:15:21.716Z,10.90
2018-02-14T08:16:21.628Z,11.60
2018-02-14T08:17:21.540Z,11.20
2018-02-14T08:18:21.450Z,10.90
2018-02-14T08:19:21.364Z,11.30
2018-02-14T08:20:21.275Z,12.20
2018-02-14T08:21:21.188Z,12.50
2018-02-14T08:22:21.100Z,11.80
2018-02-14T08:23:21.013Z,12.60
2018-02-14T08:24:20.924Z,11.80
2018-02-14T08:25:20.838Z,12.20
2018-02-14T08:26:20.750Z,13.20
2018-02-14T08:27:20.662Z,12.70
2018-02-14T08:28:20.574Z,12.20
2018-02-14T08:29:20.487Z,12.20
2018-02-14T08:30:20.400Z,12.50
2018-02-14T08:31:20.313Z,12.60
2018-02-14T08:32:20.225Z,12.50
2018-02-14T08:33:20.138Z,12.70
2018-02-14T08:34:20.083Z,12.30
2018-02-14T08:35:19.964Z,11.90
2018-02-14T08:36:19.876Z,11.90
2018-02-14T08:37:19.790Z,12.20
2018-02-14T08:38:19.703Z,11.60
2018-02-14T08:39:19.617Z,12.70
2018-02-14T08:40:19.529Z,12.10
2018-02-14T08:41:19.443Z,12.30
2018-02-14T08:42:19.356Z,12.00
2018-02-14T08:43:19.270Z,11.40
2018-02-14T08:44:19.182Z,11.50
2018-02-14T08:45:19.096Z,12.60
2018-02-14T08:46:19.010Z,12.20
2018-02-14T08:47:18.924Z,12.40
2018-02-14T08:48:18.836Z,12.20
2018-02-14T08:49:18.750Z,11.70
2018-02-14T08:50:18.813Z,12.10
2018-02-14T08:51:18.578Z,11.10
2018-02-14T08:52:18.491Z,10.90
2018-02-14T08:53:18.405Z,11.90
2018-02-14T08:54:18.320Z,10.70
2018-02-14T08:55:18.233Z,11.20
2018-02-14T08:56:18.146Z,11.00
2018-02-14T08:57:18.061Z,11.00
2018-02-14T08:58:17.975Z,10.60
2018-02-14T08:59:17.889Z,12.00
2018-02-14T09:00:17.834Z,12.20
2018-02-14T09:01:17.717Z,11.30
2018-02-14T09:02:17.632Z,11.70
2018-02-14T09:03:17.546Z,11.80
2018-02-14T09:04:17.460Z,12.00
2018-02-14T09:05:17.375Z,11.80
2018-02-14T09:06:17.290Z,11.70
2018-02-14T09:07:17.205Z,12.30
2018-02-14T09:08:17.122Z,13.50
2018-02-14T09:09:17.033Z,14.70
2018-02-14T09:10:16.949Z,15.40
2018-02-14T09:11:16.864Z,14.10
2018-02-14T09:12:16.778Z,13.40
2018-02-14T09:13:16.693Z,13.10
2018-02-14T09:14:16.627Z,13.20
2018-02-14T09:15:16.523Z,12.80
2018-02-14T09:16:16.438Z,13.90
2018-02-14T09:17:16.354Z,12.00
2018-02-14T09:18:16.268Z,11.50
2018-02-14T09:19:16.186Z,10.80
2018-02-14T09:20:16.103Z,11.40
2018-02-14T09:21:16.017Z,9.00
2018-02-14T09:22:15.933Z,9.20
2018-02-14T09:23:15.850Z,10.00
2018-02-14T09:24:15.766Z,9.20
2018-02-14T09:25:15.682Z,9.10
2018-02-14T09:26:15.600Z,10.10
2018-02-14T09:27:15.517Z,8.90
2018-02-14T09:28:15.433Z,9.00
2018-02-14T09:29:15.350Z,8.90
2018-02-14T09:30:15.268Z,9.10
2018-02-14T09:31:15.186Z,8.80
2018-02-14T09:32:15.104Z,9.60
2018-02-14T09:33:15.020Z,9.30
2018-02-14T09:34:14.937Z,8.90
2018-02-14T09:35:14.857Z,9.10
2018-02-14T09:36:14.771Z,9.40
2018-02-14T09:37:14.689Z,9.40
2018-02-14T09:38:14.606Z,9.30
2018-02-14T09:39:14.524Z,8.40
2018-02-14T09:40:14.441Z,9.00
2018-02-14T09:41:14.359Z,8.50
2018-02-14T09:42:14.275Z,9.50
2018-02-14T09:43:14.193Z,9.20
2018-02-14T09:44:14.109Z,9.10
2018-02-14T09:45:14.026Z,8.30
2018-02-14T09:46:13.943Z,9.00
2018-02-14T09:47:13.862Z,9.30
2018-02-14T09:48:13.783Z,9.80
2018-02-14T09:49:13.697Z,8.40
2018-02-14T09:50:13.613Z,8.10
2018-02-14T09:51:13.531Z,9.00
2018-02-14T09:52:13.448Z,8.70
2018-02-14T09:53:13.366Z,8.10
2018-02-14T09:54:13.284Z,8.80
2018-02-14T09:55:13.201Z,8.50
2018-02-14T09:56:13.117Z,8.00
2018-02-14T09:57:13.038Z,8.10
2018-02-14T09:58:12.954Z,8.40
2018-02-14T09:59:12.871Z,8.50
2018-02-14T10:00:12.826Z,8.60
2018-02-14T10:01:12.708Z,8.00
2018-02-14T10:02:12.627Z,7.90
2018-02-14T10:03:12.545Z,8.40
2018-02-14T10:04:12.462Z,7.70
2018-02-14T10:05:12.379Z,8.60
2018-02-14T10:06:12.299Z,8.20
2018-02-14T10:07:12.217Z,7.80
2018-02-14T10:08:12.134Z,7.30
2018-02-14T10:09:12.052Z,7.60
2018-02-14T10:10:11.972Z,8.30
2018-02-14T10:11:11.894Z,8.00
2018-02-14T10:12:11.808Z,7.40
2018-02-14T10:13:11.728Z,7.90
2018-02-14T10:14:11.646Z,7.50
2018-02-14T10:15:11.565Z,7.50
2018-02-14T10:16:11.483Z,7.30
2018-02-14T10:17:11.402Z,7.20
2018-02-14T10:18:11.322Z,7.70
2018-02-14T10:19:11.240Z,7.50
2018-02-14T10:20:11.158Z,7.70
2018-02-14T10:21:11.077Z,8.00
2018-02-14T10:22:10.997Z,7.70
2018-02-14T10:23:10.927Z,7.50
2018-02-14T10:24:10.834Z,7.30
2018-02-14T10:25:10.753Z,7.80
2018-02-14T10:26:10.673Z,7.70
2018-02-14T10:27:10.593Z,7.90
2018-02-14T10:28:10.512Z,7.10
2018-02-14T10:29:10.432Z,7.90
2018-02-14T10:30:10.356Z,8.10
2018-02-14T10:31:10.273Z,7.00
2018-02-14T10:32:10.190Z,7.60
2018-02-14T10:33:10.112Z,7.00
2018-02-14T10:34:10.033Z,7.40
2018-02-14T10:35:09.955Z,7.30
2018-02-14T10:36:09.873Z,7.40
2018-02-14T10:37:09.793Z,7.00
2018-02-14T10:38:09.713Z,6.90
2018-02-14T10:39:09.633Z,7.40
2018-02-14T10:40:09.553Z,7.10
2018-02-14T10:41:09.474Z,7.80
2018-02-14T10:42:09.394Z,7.10
2018-02-14T10:43:09.314Z,7.20
2018-02-14T10:44:09.234Z,7.00
2018-02-14T10:45:09.153Z,7.10
2018-02-14T10:46:09.088Z,7.10
2018-02-14T10:47:08.995Z,7.10
2018-02-14T10:48:08.915Z,7.00
2018-02-14T10:49:08.836Z,7.00
2018-02-14T10:50:08.757Z,7.60
2018-02-14T10:51:08.679Z,6.80
2018-02-14T10:52:08.599Z,5.80
2018-02-14T10:53:08.521Z,6.40
2018-02-14T10:54:08.443Z,5.80
2018-02-14T10:55:08.364Z,6.30
2018-02-14T10:56:08.286Z,5.90
2018-02-14T10:57:08.207Z,6.90
2018-02-14T10:58:08.129Z,6.80
2018-02-14T10:59:08.051Z,6.30
2018-02-14T11:00:07.971Z,6.20
2018-02-14T11:01:07.892Z,6.00
2018-02-14T11:02:07.813Z,6.40
2018-02-14T11:03:07.735Z,6.30
2018-02-14T11:04:07.656Z,6.50
2018-02-14T11:05:07.578Z,6.60
2018-02-14T11:06:07.509Z,6.00
2018-02-14T11:07:07.421Z,6.60
2018-02-14T11:08:07.344Z,6.60
2018-02-14T11:09:07.263Z,6.40
2018-02-14T11:10:07.187Z,6.30
2018-02-14T11:11:07.107Z,6.20
2018-02-14T11:12:07.027Z,5.90
2018-02-14T11:13:06.950Z,6.70
2018-02-14T11:14:06.873Z,6.00
2018-02-14T11:15:06.796Z,6.40
2018-02-14T11:16:06.718Z,6.40
2018-02-14T11:17:06.640Z,6.10
2018-02-14T11:18:06.564Z,6.40
2018-02-14T11:19:06.488Z,6.50
2018-02-14T11:20:06.410Z,6.60
2018-02-14T11:21:06.334Z,6.30
2018-02-14T11:22:06.258Z,7.00
2018-02-14T11:23:06.181Z,6.40
2018-02-14T11:24:06.106Z,6.50
2018-02-14T11:25:06.029Z,6.60
2018-02-14T11:26:05.953Z,6.20
2018-02-14T11:27:05.878Z,5.70
2018-02-14T11:28:05.801Z,6.20
2018-02-14T11:29:05.725Z,5.50
2018-02-14T11:30:05.689Z,5.40
2018-02-14T11:31:05.573Z,6.00
2018-02-14T11:32:05.496Z,5.40
2018-02-14T11:33:05.420Z,5.00
2018-02-14T11:34:05.345Z,5.20
2018-02-14T11:35:05.269Z,5.20
2018-02-14T11:36:05.192Z,4.90
2018-02-14T11:37:05.117Z,4.60
2018-02-14T11:38:05.042Z,4.50
2018-02-14T11:39:04.967Z,5.00
2018-02-14T11:40:04.891Z,4.60
2018-02-14T11:41:04.815Z,4.70
2018-02-14T11:42:04.740Z,4.90
2018-02-14T11:43:04.666Z,4.80
2018-02-14T11:44:04.590Z,4.60
2018-02-14T11:45:04.518Z,4.20
2018-02-14T11:46:04.440Z,4.50
2018-02-14T11:47:04.367Z,4.60
2018-02-14T11:48:04.291Z,4.50
2018-02-14T11:49:04.216Z,4.50
2018-02-14T11:50:04.142Z,4.30
2018-02-14T11:51:04.072Z,4.10
2018-02-14T11:52:03.994Z,4.60
2018-02-14T11:53:03.921Z,4.40
2018-02-14T11:54:03.848Z,4.30
2018-02-14T11:55:03.776Z,5.10
2018-02-14T11:56:03.703Z,4.80
2018-02-14T11:57:03.630Z,5.10
2018-02-14T11:58:03.559Z,4.80
2018-02-14T11:59:03.488Z,4.80
2018-02-14T12:00:03.418Z,5.10
2018-02-14T12:01:03.346Z,4.80
2018-02-14T12:02:03.277Z,4.70
2018-02-14T12:03:03.204Z,5.10
2018-02-14T12:04:03.133Z,5.50
2018-02-14T12:05:03.063Z,4.80
2018-02-14T12:06:02.994Z,4.70
2018-02-14T12:07:02.924Z,4.60
2018-02-14T12:08:02.852Z,5.10
2018-02-14T12:09:02.783Z,4.90
2018-02-14T12:10:02.712Z,4.80
2018-02-14T12:11:02.647Z,4.90
2018-02-14T12:12:02.574Z,5.10
2018-02-14T12:13:02.504Z,5.10
2018-02-14T12:14:02.435Z,4.80
2018-02-14T12:15:02.367Z,4.80
2018-02-14T12:16:02.297Z,5.00
2018-02-14T12:17:02.228Z,4.90
2018-02-14T12:18:02.160Z,4.20
2018-02-14T12:19:02.092Z,4.40
2018-02-14T12:20:02.023Z,4.30
2018-02-14T12:21:01.954Z,4.30
2018-02-14T12:22:01.889Z,4.30
2018-02-14T12:23:01.819Z,4.10
2018-02-14T12:24:01.749Z,4.40
2018-02-14T12:25:01.681Z,4.30
2018-02-14T12:26:01.618Z,5.00
2018-02-14T12:27:01.546Z,4.70
2018-02-14T12:28:01.477Z,5.00
2018-02-14T12:29:01.409Z,4.60
2018-02-14T12:30:01.341Z,4.70
2018-02-14T12:31:01.273Z,4.60
2018-02-14T12:32:01.206Z,4.80
2018-02-14T12:33:01.136Z,4.30
2018-02-14T12:34:01.069Z,3.80
2018-02-14T12:35:00.999Z,3.90
2018-02-14T12:36:00.929Z,4.00
2018-02-14T12:37:00.863Z,4.30
2018-02-14T12:38:00.791Z,3.90
2018-02-14T12:39:00.723Z,4.20
2018-02-14T12:40:00.654Z,4.00
2018-02-14T12:41:00.583Z,4.10
2018-02-14T12:42:00.514Z,4.60
2018-02-14T12:43:00.445Z,4.40
2018-02-14T12:44:00.374Z,5.00
2018-02-14T12:45:00.305Z,5.20
2018-02-14T12:46:00.235Z,5.20
2018-02-14T12:47:00.167Z,4.20
2018-02-14T12:48:00.096Z,4.90
2018-02-14T12:49:00.027Z,5.40
2018-02-14T12:49:59.956Z,5.10
2018-02-14T12:50:59.887Z,4.90
2018-02-14T12:51:59.819Z,4.70
2018-02-14T12:52:59.750Z,4.60
2018-02-14T12:53:59.679Z,5.10
2018-02-14T12:54:59.607Z,4.70
2018-02-14T12:55:59.541Z,5.10
2018-02-14T12:56:59.469Z,4.90
2018-02-14T12:57:59.396Z,4.50
2018-02-14T12:58:59.325Z,4.70
2018-02-14T12:59:59.254Z,4.90
2018-02-14T13:00:59.184Z,4.20
2018-02-14T13:01:59.114Z,4.70
2018-02-14T13:02:59.043Z,4.40
2018-02-14T13:03:58.971Z,4.30
2018-02-14T13:04:58.900Z,4.80
2018-02-14T13:05:58.829Z,5.10
2018-02-14T13:06:58.757Z,4.60
2018-02-14T13:07:58.684Z,4.80
2018-02-14T13:08:58.613Z,4.50
2018-02-14T13:09:58.541Z,4.70